Time;durP1;ratioP1;P1;durP2;ratioP2;P2;SDS_P1;SDS_P2;PMS_P1;PMS_P2;Temp;Humidity;BMP_temperature;BMP_pressure;BME280_temperature;BME280_humidity;BME280_pressure;Samples;Min_cycle;Max_cycle;Signal;HPM_P1;HPM_P2
2023/06/10 00:01:37;;;;;;;6.90;6.30;;;21.80;99.90;;;;;;4956454;28;20235;-61
2023/06/10 00:04:07;;;;;;;11.67;6.97;;;21.70;99.90;;;;;;4956472;28;20258;-61
2023/06/10 00:06:36;;;;;;;8.23;6.87;;;21.60;99.90;;;;;;4956595;28;20303;-61
2023/06/10 00:09:07;;;;;;;7.50;6.80;;;21.60;99.90;;;;;;4957039;28;20194;-61
2023/06/10 00:11:36;;;;;;;7.53;6.87;;;21.50;99.90;;;;;;4956761;28;20227;-61
2023/06/10 00:14:04;;;;;;;7.70;6.67;;;21.50;99.90;;;;;;4956154;28;20694;-61
2023/06/10 00:16:33;;;;;;;7.60;6.80;;;21.50;99.90;;;;;;4956369;28;20223;-61
2023/06/10 00:19:03;;;;;;;7.47;6.60;;;21.40;99.90;;;;;;4956090;28;20236;-61
2023/06/10 00:21:37;;;;;;;7.80;7.10;;;21.30;99.90;;;;;;4956772;28;20184;-61
2023/06/10 00:24:06;;;;;;;8.60;7.17;;;21.30;99.90;;;;;;4955948;28;20219;-61
2023/06/10 00:26:34;;;;;;;10.87;6.70;;;21.20;99.90;;;;;;4956253;28;20254;-61
2023/06/10 00:29:03;;;;;;;7.70;6.77;;;21.10;99.90;;;;;;4955049;28;20587;-62
2023/06/10 00:31:31;;;;;;;8.67;6.70;;;21.00;99.90;;;;;;4956121;28;20638;-61
2023/06/10 00:33:59;;;;;;;7.60;7.00;;;20.90;99.90;;;;;;4956079;28;20319;-61
2023/06/10 00:36:28;;;;;;;11.13;7.30;;;20.80;99.90;;;;;;4956184;29;20192;-61
2023/06/10 00:38:58;;;;;;;11.10;7.33;;;20.80;99.90;;;;;;4955753;28;20577;-61
2023/06/10 00:41:27;;;;;;;7.80;7.07;;;20.70;99.90;;;;;;4955823;28;20239;-62
2023/06/10 00:43:55;;;;;;;10.40;7.43;;;20.70;99.90;;;;;;4954359;28;20228;-62
2023/06/10 00:46:26;;;;;;;8.00;7.40;;;20.70;99.90;;;;;;4955479;28;20232;-61
2023/06/10 00:56:18;;;;;;;7.80;7.17;;;20.70;99.90;;;;;;4955538;28;20222;-61
2023/06/10 00:58:48;;;;;;;8.33;7.30;;;20.70;99.90;;;;;;4955540;28;20220;-61
2023/06/10 01:01:16;;;;;;;7.93;7.13;;;20.60;99.90;;;;;;4955277;28;20594;-61
2023/06/10 01:03:45;;;;;;;8.63;7.90;;;20.60;99.90;;;;;;4955347;28;20255;-61
2023/06/10 01:06:21;;;;;;;7.50;6.83;;;20.60;99.90;;;;;;4955883;28;20543;-61
2023/06/10 01:08:58;;;;;;;7.37;6.73;;;20.60;99.90;;;;;;4955366;28;20233;-61
2023/06/10 01:11:33;;;;;;;8.10;7.40;;;20.50;99.90;;;;;;4955364;28;20227;-61
2023/06/10 01:14:01;;;;;;;10.27;7.27;;;20.50;99.90;;;;;;4955368;28;20227;-61
2023/06/10 01:16:30;;;;;;;7.97;7.30;;;20.40;99.90;;;;;;4955151;28;20220;-61
2023/06/10 01:19:00;;;;;;;10.40;7.60;;;20.30;99.90;;;;;;4955115;28;20224;-62
2023/06/10 01:21:30;;;;;;;14.63;7.70;;;20.30;99.90;;;;;;4955934;28;20204;-61
2023/06/10 01:24:02;;;;;;;8.90;7.60;;;20.30;99.90;;;;;;4955182;29;20215;-61
2023/06/10 01:26:34;;;;;;;9.13;7.43;;;20.20;99.90;;;;;;4955022;28;20235;-61
2023/06/10 01:29:08;;;;;;;8.13;7.33;;;20.20;99.90;;;;;;4955226;28;20228;-61
2023/06/10 01:31:43;;;;;;;8.97;8.07;;;20.10;99.90;;;;;;4947185;28;20222;-61
2023/06/10 01:34:15;;;;;;;8.37;7.77;;;20.10;99.90;;;;;;4954816;28;20732;-61
2023/06/10 01:36:48;;;;;;;11.67;8.23;;;20.10;99.90;;;;;;4954955;28;20544;-61
2023/06/10 01:42:57;;;;;;;8.63;7.83;;;20.00;99.90;;;;;;4958472;28;20306;-61
2023/06/10 01:45:46;;;;;;;9.53;7.90;;;19.90;99.90;;;;;;4958869;28;20212;-61
2023/06/10 01:48:14;;;;;;;8.27;7.50;;;19.80;99.90;;;;;;4940273;29;20332;-61
2023/06/10 01:50:43;;;;;;;12.47;8.67;;;19.80;99.90;;;;;;4959103;28;20275;-61
2023/06/10 01:53:13;;;;;;;8.07;7.40;;;19.70;99.90;;;;;;4958068;28;20238;-61
2023/06/10 01:55:41;;;;;;;16.50;7.77;;;19.60;99.90;;;;;;4958881;28;20230;-60
2023/06/10 01:58:10;;;;;;;8.70;7.77;;;19.60;99.90;;;;;;4958923;28;20236;-61
2023/06/10 02:00:38;;;;;;;9.47;8.47;;;19.50;99.90;;;;;;4958615;28;20196;-61
2023/06/10 02:03:06;;;;;;;8.47;7.77;;;19.50;99.90;;;;;;4959091;28;20524;-61
2023/06/10 02:05:35;;;;;;;8.87;8.10;;;19.50;99.90;;;;;;4958693;28;20234;-61
2023/06/10 02:08:03;;;;;;;11.60;8.40;;;19.50;99.90;;;;;;4958462;28;20232;-61
2023/06/10 02:10:33;;;;;;;10.67;8.30;;;19.40;99.90;;;;;;4958874;28;20231;-61
2023/06/10 02:13:02;;;;;;;9.73;8.80;;;19.30;99.90;;;;;;4958562;28;20220;-62
2023/06/10 02:15:30;;;;;;;8.83;8.07;;;19.30;99.90;;;;;;4958907;28;20196;-61
2023/06/10 02:17:58;;;;;;;11.23;8.60;;;19.20;99.90;;;;;;4958324;28;20253;-61
2023/06/10 02:20:27;;;;;;;9.20;8.40;;;19.10;99.90;;;;;;4958468;28;20589;-61
2023/06/10 02:22:55;;;;;;;9.90;8.90;;;19.00;99.90;;;;;;4957177;28;20255;-61
2023/06/10 02:25:24;;;;;;;9.47;8.60;;;19.00;99.90;;;;;;4958084;28;20227;-61
2023/06/10 02:27:53;;;;;;;9.43;8.43;;;18.90;99.90;;;;;;4958380;28;20235;-61
2023/06/10 02:30:22;;;;;;;9.57;8.77;;;18.90;99.90;;;;;;4958459;28;20295;-60
2023/06/10 02:32:50;;;;;;;9.30;8.50;;;18.80;99.90;;;;;;4958373;28;20223;-61
2023/06/10 02:35:19;;;;;;;14.87;8.50;;;18.80;99.90;;;;;;4958111;28;20223;-61
2023/06/10 02:37:47;;;;;;;9.17;8.37;;;18.70;99.90;;;;;;4958288;28;20231;-61
2023/06/10 02:40:15;;;;;;;9.70;8.80;;;18.70;99.90;;;;;;4956838;28;20228;-61
2023/06/10 02:42:43;;;;;;;9.50;8.70;;;18.70;99.90;;;;;;4957724;28;20198;-61
2023/06/10 02:45:13;;;;;;;9.80;8.80;;;18.60;99.90;;;;;;4958106;28;20196;-61
2023/06/10 02:47:42;;;;;;;10.23;9.20;;;18.60;99.90;;;;;;4956513;28;20234;-61
2023/06/10 02:53:51;;;;;;;9.93;9.03;;;18.40;99.90;;;;;;4938417;28;20243;-61
2023/06/10 02:56:20;;;;;;;9.57;8.67;;;18.30;99.90;;;;;;4951546;28;20558;-61
2023/06/10 02:58:48;;;;;;;10.27;9.37;;;18.30;99.90;;;;;;4957696;28;20244;-60
2023/06/10 03:01:18;;;;;;;10.57;9.60;;;18.30;99.90;;;;;;4956291;28;20235;-61
2023/06/10 03:03:50;;;;;;;10.70;9.80;;;18.20;99.90;;;;;;4957775;28;20312;-62
2023/06/10 03:06:19;;;;;;;14.83;9.80;;;18.20;99.90;;;;;;4938927;29;20541;-62
2023/06/10 03:08:47;;;;;;;10.13;9.10;;;18.20;99.90;;;;;;4938296;28;20220;-61
2023/06/10 03:11:15;;;;;;;10.50;9.50;;;18.20;99.90;;;;;;4938476;28;20239;-61
2023/06/10 03:13:44;;;;;;;10.77;9.67;;;18.10;99.90;;;;;;4938429;28;20232;-62
2023/06/10 03:16:12;;;;;;;11.50;10.30;;;18.10;99.90;;;;;;4938309;28;20233;-61
2023/06/10 03:18:42;;;;;;;10.50;9.50;;;18.10;99.90;;;;;;4941041;28;20196;-61
2023/06/10 03:21:11;;;;;;;13.17;9.67;;;18.00;99.90;;;;;;4957695;28;20194;-61
2023/06/10 03:23:39;;;;;;;10.77;9.83;;;18.00;99.90;;;;;;4957423;28;20236;-61
2023/06/10 03:26:08;;;;;;;10.10;9.30;;;17.90;99.90;;;;;;4956951;28;20239;-61
2023/06/10 03:28:36;;;;;;;11.43;10.07;;;17.90;99.90;;;;;;4943892;28;20232;-60
2023/06/10 03:31:05;;;;;;;12.27;9.57;;;17.90;99.90;;;;;;4957007;28;20232;-62
2023/06/10 03:33:33;;;;;;;11.67;9.90;;;17.90;99.90;;;;;;4957341;28;20245;-60
2023/06/10 03:36:03;;;;;;;13.63;10.63;;;17.90;99.90;;;;;;4957845;28;20222;-61
2023/06/10 03:38:31;;;;;;;11.57;10.53;;;17.80;99.90;;;;;;4956875;28;20695;-61
2023/06/10 03:41:00;;;;;;;10.53;9.53;;;17.80;99.90;;;;;;4957010;28;20606;-61
2023/06/10 03:43:28;;;;;;;11.07;10.07;;;17.80;99.90;;;;;;4956858;28;20226;-61
2023/06/10 03:45:56;;;;;;;11.57;10.37;;;17.80;99.90;;;;;;4956311;28;20227;-61
2023/06/10 03:48:25;;;;;;;11.17;10.10;;;17.80;99.90;;;;;;4957328;28;20231;-61
2023/06/10 03:50:53;;;;;;;11.03;9.87;;;17.80;99.90;;;;;;4937588;28;20256;-62
2023/06/10 03:53:23;;;;;;;11.57;10.40;;;17.80;99.90;;;;;;4955313;29;20243;-62
2023/06/10 03:55:51;;;;;;;11.90;10.70;;;17.70;99.90;;;;;;4956697;28;20602;-62
2023/06/10 03:58:19;;;;;;;12.00;10.90;;;17.70;99.90;;;;;;4956550;28;20223;-61
2023/06/10 04:00:49;;;;;;;11.90;10.33;;;17.70;99.90;;;;;;4942192;28;20208;-61
2023/06/10 04:03:17;;;;;;;11.13;10.13;;;17.70;99.90;;;;;;4937744;29;20263;-61
2023/06/10 04:05:46;;;;;;;11.93;10.73;;;17.70;99.90;;;;;;4937426;28;20644;-62
2023/06/10 04:08:14;;;;;;;11.70;10.60;;;17.70;99.90;;;;;;4937052;28;20221;-61
2023/06/10 04:10:44;;;;;;;12.23;10.87;;;17.70;99.90;;;;;;4937048;28;20630;-61
2023/06/10 04:13:12;;;;;;;12.63;10.60;;;17.70;99.90;;;;;;4949710;28;20232;-61
2023/06/10 04:15:40;;;;;;;11.90;10.70;;;17.70;99.90;;;;;;4956491;28;20200;-61
2023/06/10 04:18:09;;;;;;;13.27;11.23;;;17.70;99.90;;;;;;4937847;29;20226;-61
2023/06/10 04:20:37;;;;;;;11.73;10.53;;;17.80;99.90;;;;;;4935900;29;20227;-62
2023/06/10 04:23:06;;;;;;;12.53;11.00;;;17.80;99.90;;;;;;4937127;28;20232;-61
2023/06/10 04:25:35;;;;;;;12.33;10.83;;;17.90;99.90;;;;;;4936666;28;20240;-62
2023/06/10 04:28:04;;;;;;;12.27;10.50;;;17.90;99.90;;;;;;4937068;28;20231;-61
2023/06/10 04:30:33;;;;;;;10.97;9.53;;;18.00;99.90;;;;;;4936940;28;20196;-61
2023/06/10 04:33:01;;;;;;;11.77;10.67;;;18.00;99.90;;;;;;4947896;29;20207;-61
2023/06/10 04:35:30;;;;;;;11.87;10.10;;;18.10;99.90;;;;;;4955814;28;20223;-61
2023/06/10 04:37:58;;;;;;;13.10;10.40;;;18.20;99.90;;;;;;4956075;28;20223;-62
2023/06/10 04:40:26;;;;;;;11.77;10.57;;;18.30;99.90;;;;;;4956172;28;20228;-61
2023/06/10 04:42:55;;;;;;;13.30;10.70;;;18.30;99.90;;;;;;4955832;28;20220;-61
2023/06/10 04:45:24;;;;;;;11.10;9.97;;;18.50;99.90;;;;;;4956593;28;20206;-61
2023/06/10 04:47:55;;;;;;;12.73;10.77;;;18.60;99.90;;;;;;4955763;28;20220;-61
2023/06/10 04:50:24;;;;;;;10.97;9.87;;;18.70;99.90;;;;;;4955631;28;20306;-61
2023/06/10 04:52:52;;;;;;;13.07;10.43;;;18.80;99.90;;;;;;4955302;28;21035;-61
2023/06/10 04:55:21;;;;;;;10.53;9.13;;;18.90;99.90;;;;;;4955856;28;20758;-61
2023/06/10 04:57:50;;;;;;;11.47;9.83;;;19.00;99.90;;;;;;4939807;28;20180;-61
2023/06/10 05:00:20;;;;;;;11.10;9.93;;;19.10;99.90;;;;;;4955987;28;20279;-62
2023/06/10 05:02:51;;;;;;;15.23;10.97;;;19.20;99.90;;;;;;4955281;28;20313;-61
2023/06/10 05:05:20;;;;;;;12.93;9.70;;;19.30;99.90;;;;;;4955258;28;20255;-61
2023/06/10 05:07:48;;;;;;;10.47;9.57;;;19.40;99.90;;;;;;4955285;28;20239;-61
2023/06/10 05:10:16;;;;;;;11.43;10.33;;;19.50;99.90;;;;;;4955215;28;20231;-61
2023/06/10 05:12:45;;;;;;;12.87;9.77;;;19.60;99.90;;;;;;4955461;28;20581;-62
2023/06/10 05:15:13;;;;;;;12.20;9.43;;;19.60;99.90;;;;;;4955352;28;20218;-62
2023/06/10 05:17:41;;;;;;;12.13;9.90;;;19.70;99.90;;;;;;4955291;28;20235;-61
2023/06/10 05:20:13;;;;;;;10.37;9.37;;;19.80;99.90;;;;;;4955361;28;20231;-61
2023/06/10 05:22:41;;;;;;;12.80;9.80;;;19.90;99.90;;;;;;4955596;28;20228;-62
2023/06/10 05:25:10;;;;;;;11.90;9.60;;;20.00;99.90;;;;;;4954189;28;20575;-61
2023/06/10 05:27:41;;;;;;;11.87;9.83;;;20.10;99.90;;;;;;4955221;28;20242;-62
2023/06/10 05:30:11;;;;;;;12.23;9.97;;;20.20;99.90;;;;;;4936351;29;20201;-62
2023/06/10 05:32:40;;;;;;;11.83;9.17;;;20.20;99.90;;;;;;4944914;28;20572;-61
2023/06/10 05:35:08;;;;;;;10.90;9.40;;;20.30;99.90;;;;;;4955076;28;20295;-61
2023/06/10 05:37:38;;;;;;;10.70;9.70;;;20.40;99.90;;;;;;4955147;28;20266;-62
2023/06/10 05:40:08;;;;;;;10.20;9.17;;;20.50;99.90;;;;;;4952635;28;20242;-61
2023/06/10 05:42:36;;;;;;;12.57;10.13;;;20.50;99.90;;;;;;4948129;28;20218;-62
2023/06/10 05:45:06;;;;;;;12.57;10.00;;;20.60;99.90;;;;;;4951918;28;20201;-61
2023/06/10 05:47:35;;;;;;;10.43;9.43;;;20.70;99.90;;;;;;4935775;28;20231;-61
2023/06/10 05:50:06;;;;;;;11.13;9.43;;;20.70;99.90;;;;;;4939490;28;20224;-61
2023/06/10 05:52:35;;;;;;;10.83;9.53;;;20.90;99.90;;;;;;4954618;28;20226;-61
2023/06/10 05:55:05;;;;;;;11.40;9.90;;;21.00;99.90;;;;;;4955054;28;20302;-61
2023/06/10 05:57:34;;;;;;;10.20;9.20;;;21.10;99.90;;;;;;4936095;28;20190;-62
2023/06/10 06:00:04;;;;;;;11.00;9.90;;;21.20;99.90;;;;;;4944871;29;20188;-61
2023/06/10 06:02:32;;;;;;;11.47;9.73;;;21.30;99.90;;;;;;4953279;28;20228;-62
2023/06/10 06:05:01;;;;;;;11.83;9.43;;;21.30;99.90;;;;;;4954537;28;20231;-61
2023/06/10 06:07:29;;;;;;;10.70;9.43;;;21.40;99.90;;;;;;4954169;28;20314;-61
2023/06/10 06:09:58;;;;;;;10.50;9.50;;;21.60;99.90;;;;;;4954573;28;20224;-61
2023/06/10 06:12:27;;;;;;;11.17;10.00;;;21.70;99.90;;;;;;4955350;29;20192;-62
2023/06/10 06:14:55;;;;;;;11.27;9.50;;;21.70;99.90;;;;;;4954526;28;20236;-61
2023/06/10 06:17:24;;;;;;;10.98;9.73;;;21.80;99.90;;;;;;4953778;28;20437;-61
2023/06/10 06:19:52;;;;;;;11.03;8.97;;;21.90;99.90;;;;;;4954611;28;20232;-62
2023/06/10 06:22:22;;;;;;;11.37;9.10;;;22.00;99.90;;;;;;4954685;28;20232;-61
2023/06/10 06:24:50;;;;;;;11.27;8.83;;;22.10;99.90;;;;;;4954719;28;20200;-61
2023/06/10 06:27:19;;;;;;;10.03;8.80;;;22.20;99.90;;;;;;4958830;29;20192;-61
2023/06/10 06:29:48;;;;;;;9.37;8.57;;;22.30;99.90;;;;;;4957046;28;20219;-61
2023/06/10 06:32:17;;;;;;;12.53;9.47;;;22.40;99.90;;;;;;4958381;28;20302;-62
2023/06/10 06:34:45;;;;;;;10.53;9.17;;;22.50;99.90;;;;;;4956960;28;20230;-62
2023/06/10 06:37:14;;;;;;;10.80;9.67;;;22.50;99.90;;;;;;4957971;28;20572;-62
2023/06/10 06:39:42;;;;;;;10.07;9.07;;;22.60;99.90;;;;;;4958018;28;20211;-61
2023/06/10 06:42:10;;;;;;;9.70;8.80;;;22.80;99.90;;;;;;4957137;29;20769;-61
2023/06/10 06:44:39;;;;;;;9.13;8.23;;;22.80;99.90;;;;;;4958178;28;20586;-61
2023/06/10 06:54:30;;;;;;;12.23;8.67;;;23.30;99.90;;;;;;4957457;28;20239;-61
2023/06/10 06:56:58;;;;;;;10.17;8.90;;;23.40;99.90;;;;;;4957803;28;20206;-62
2023/06/10 06:59:27;;;;;;;11.00;8.87;;;23.50;99.90;;;;;;4957863;28;20220;-61
2023/06/10 07:16:38;;;;;;;10.23;8.60;;;24.20;99.90;;;;;;4937204;29;20221;-62
2023/06/10 07:19:07;;;;;;;11.00;8.57;;;24.30;99.90;;;;;;4938387;28;20227;-62
2023/06/10 07:21:36;;;;;;;10.67;8.00;;;24.40;99.90;;;;;;4952857;28;20220;-61
2023/06/10 07:24:04;;;;;;;8.23;7.53;;;24.50;99.90;;;;;;4957977;28;20248;-61
2023/06/10 07:26:33;;;;;;;11.03;8.13;;;24.60;99.90;;;;;;4957006;28;20337;-61
2023/06/10 07:29:01;;;;;;;9.77;7.83;;;24.60;99.90;;;;;;4956977;28;20241;-62
2023/06/10 07:31:29;;;;;;;11.97;8.07;;;24.70;99.90;;;;;;4957037;28;20297;-62
2023/06/10 07:34:00;;;;;;;10.10;8.30;;;24.80;99.90;;;;;;4957193;28;20249;-62
2023/06/10 07:36:29;;;;;;;9.30;8.40;;;25.00;99.90;;;;;;4957192;28;20198;-61
2023/06/10 07:38:57;;;;;;;9.07;7.80;;;25.00;99.90;;;;;;4956987;28;20226;-61
2023/06/10 07:41:26;;;;;;;8.73;7.93;;;25.10;99.90;;;;;;4957156;28;20554;-62
2023/06/10 07:43:55;;;;;;;11.17;7.87;;;25.20;99.90;;;;;;4956919;28;20228;-61
2023/06/10 07:46:26;;;;;;;8.97;7.83;;;25.30;99.90;;;;;;4956828;28;20633;-61
2023/06/10 07:48:55;;;;;;;8.63;7.87;;;25.40;99.90;;;;;;4956309;28;20282;-61
2023/06/10 07:51:25;;;;;;;8.27;7.57;;;25.50;99.90;;;;;;4956973;28;20195;-61
2023/06/10 07:53:54;;;;;;;8.30;7.43;;;25.50;99.90;;;;;;4956217;28;20266;-61
2023/06/10 07:56:22;;;;;;;8.83;7.53;;;25.70;99.90;;;;;;4956864;28;20232;-61
2023/06/10 07:58:50;;;;;;;10.37;7.60;;;25.70;99.90;;;;;;4956414;28;20283;-62
2023/06/10 08:01:19;;;;;;;12.47;7.17;;;26.00;99.90;;;;;;4957077;28;20230;-61
2023/06/10 08:03:47;;;;;;;8.50;7.70;;;26.10;99.90;;;;;;4956293;28;20201;-61
2023/06/10 08:06:16;;;;;;;8.53;7.00;;;26.20;99.90;;;;;;4956772;28;20196;-62
2023/06/10 08:08:46;;;;;;;11.03;7.90;;;26.40;99.90;;;;;;4956002;28;20224;-61
2023/06/10 08:11:15;;;;;;;10.50;6.77;;;26.70;99.90;;;;;;4956506;28;20235;-62
2023/06/10 08:13:43;;;;;;;9.13;6.93;;;26.80;99.90;;;;;;4952344;28;20228;-62
2023/06/10 08:19:52;;;;;;;7.80;6.67;;;27.10;99.90;;;;;;4937483;28;20228;-61
2023/06/10 08:26:03;;;;;;;7.87;7.07;;;27.60;99.90;;;;;;4937182;28;20636;-62
2023/06/10 08:28:31;;;;;;;8.07;6.60;;;27.70;99.90;;;;;;4945745;28;20703;-62
2023/06/10 08:31:00;;;;;;;8.00;7.20;;;27.50;99.90;;;;;;4956017;28;20228;-62
2023/06/10 08:33:28;;;;;;;7.43;6.70;;;27.50;99.90;;;;;;4956723;28;20258;-62
2023/06/10 08:35:56;;;;;;;7.43;6.45;;;27.60;99.90;;;;;;4956052;28;20211;-61
2023/06/10 08:38:25;;;;;;;7.40;6.68;;;27.60;99.90;;;;;;4955898;28;20760;-62
2023/06/10 08:41:00;;;;;;;7.25;6.63;;;27.80;99.90;;;;;;4955480;28;20309;-62
2023/06/10 08:43:35;;;;;;;6.93;6.35;;;27.90;99.90;;;;;;4955874;28;20223;-62
2023/06/10 08:46:04;;;;;;;6.35;5.95;;;28.00;99.90;;;;;;4956082;28;20235;-62
2023/06/10 08:48:35;;;;;;;9.68;6.20;;;28.30;99.90;;;;;;4955038;28;20688;-61
2023/06/10 08:51:05;;;;;;;6.95;6.30;;;28.50;99.90;;;;;;4955942;28;20209;-62
2023/06/10 08:53:37;;;;;;;6.53;5.93;;;28.60;99.90;;;;;;4955620;28;20228;-62
2023/06/10 08:59:49;;;;;;;6.57;5.97;;;28.90;99.90;;;;;;4935013;29;20225;-63
2023/06/10 09:05:59;;;;;;;6.28;5.68;;;29.20;99.90;;;;;;4936796;29;20198;-63
2023/06/10 09:08:27;;;;;;;6.80;5.50;;;29.10;99.90;;;;;;4935854;28;20252;-63
2023/06/10 09:10:56;;;;;;;6.45;5.40;;;29.20;99.90;;;;;;4936041;28;20238;-62
2023/06/10 09:13:24;;;;;;;6.65;5.97;;;29.20;99.90;;;;;;4936055;28;20224;-62
2023/06/10 09:15:56;;;;;;;6.63;6.13;;;29.50;99.90;;;;;;4936355;28;20674;-62
2023/06/10 09:18:25;;;;;;;6.18;5.68;;;29.60;99.90;;;;;;4936534;29;20185;-62
2023/06/10 09:20:53;;;;;;;6.13;5.55;;;29.80;99.90;;;;;;4936349;28;20603;-62
2023/06/10 09:23:22;;;;;;;6.93;5.30;;;30.00;99.90;;;;;;4936507;28;20560;-62
2023/06/10 09:25:58;;;;;;;6.18;5.70;;;30.00;99.90;;;;;;4936021;28;20237;-63
2023/06/10 09:28:27;;;;;;;8.52;6.13;;;30.00;99.90;;;;;;4936176;28;20598;-63
2023/06/10 09:31:07;;;;;;;6.53;5.55;;;30.20;99.90;;;;;;4935735;28;20227;-62
2023/06/10 09:37:21;;;;;;;6.22;5.45;;;30.70;99.90;;;;;;4936566;28;20553;-64
2023/06/10 09:40:05;;;;;;;6.35;5.80;;;31.10;99.90;;;;;;4951941;28;20224;-63
2023/06/10 09:46:19;;;;;;;6.07;5.40;;;31.20;99.90;;;;;;4950392;28;20232;-62
2023/06/10 09:48:49;;;;;;;5.55;5.15;;;31.30;99.90;;;;;;4936641;29;20240;-60
2023/06/10 09:55:01;;;;;;;8.52;5.80;;;31.20;99.90;;;;;;4935975;29;20636;-60
2023/06/10 09:57:33;;;;;;;8.77;5.30;;;31.40;99.90;;;;;;4935969;28;20228;-60
2023/06/10 10:00:07;;;;;;;5.95;5.55;;;31.30;99.90;;;;;;4945081;28;20235;-60
2023/06/10 10:02:46;;;;;;;6.43;5.88;;;31.30;99.90;;;;;;4959282;28;20277;-59
2023/06/10 10:05:16;;;;;;;6.15;5.65;;;31.20;99.90;;;;;;4959038;28;20647;-60
2023/06/10 10:07:45;;;;;;;5.38;5.03;;;31.60;99.90;;;;;;4958699;28;20227;-60
2023/06/10 10:10:15;;;;;;;5.82;5.15;;;31.90;99.90;;;;;;4957847;29;20618;-60
2023/06/10 10:12:46;;;;;;;7.03;4.65;;;31.80;99.90;;;;;;4958521;28;20219;-60
2023/06/10 10:15:18;;;;;;;5.40;5.10;;;31.80;99.90;;;;;;4958554;28;20319;-60
2023/06/10 10:17:56;;;;;;;5.43;4.93;;;31.90;99.90;;;;;;4958370;28;20239;-61
2023/06/10 10:20:28;;;;;;;5.13;4.72;;;32.10;99.90;;;;;;4939730;28;20274;-60
2023/06/10 10:22:58;;;;;;;5.43;4.93;;;32.00;99.90;;;;;;4938314;29;20229;-60
2023/06/10 10:25:31;;;;;;;6.43;5.32;;;32.00;99.90;;;;;;4949395;28;20230;-60
2023/06/10 10:28:06;;;;;;;6.32;4.95;;;32.40;99.90;;;;;;4959194;28;20646;-60
2023/06/10 10:30:39;;;;;;;4.65;4.35;;;32.60;99.90;;;;;;4958713;28;20323;-60
2023/06/10 10:33:17;;;;;;;4.88;4.60;;;32.70;99.90;;;;;;4958713;28;20231;-60
2023/06/10 10:35:47;;;;;;;5.15;4.85;;;32.70;99.70;;;;;;4958164;28;20235;-61
2023/06/10 10:38:17;;;;;;;4.95;4.63;;;32.40;99.90;;;;;;4958116;28;20232;-60
2023/06/10 10:40:47;;;;;;;4.93;4.47;;;32.60;99.90;;;;;;4958211;28;20596;-60
2023/06/10 10:43:16;;;;;;;6.65;4.32;;;32.70;99.90;;;;;;4959047;28;20279;-61
2023/06/10 10:45:46;;;;;;;5.07;4.80;;;32.80;98.80;;;;;;4958347;28;20223;-60
2023/06/10 10:48:16;;;;;;;5.45;5.05;;;32.80;99.20;;;;;;4957948;28;20304;-63
2023/06/10 10:50:58;;;;;;;4.57;4.22;;;32.80;96.70;;;;;;4957799;28;20232;-60
2023/06/10 10:53:26;;;;;;;6.30;4.57;;;32.90;97.90;;;;;;4958174;28;20744;-61
2023/06/10 10:56:05;;;;;;;5.10;4.80;;;33.10;98.60;;;;;;4957929;28;20769;-62
2023/06/10 10:58:33;;;;;;;4.85;4.45;;;33.10;96.80;;;;;;4957868;28;20192;-62
2023/06/10 11:01:11;;;;;;;4.20;4.00;;;33.00;96.40;;;;;;4958325;28;20203;-62
2023/06/10 11:03:46;;;;;;;4.85;4.28;;;33.40;97.90;;;;;;4957928;28;20311;-61
2023/06/10 11:06:17;;;;;;;4.20;3.97;;;33.40;94.90;;;;;;4957962;28;20589;-61
2023/06/10 11:08:50;;;;;;;4.43;4.13;;;33.10;93.60;;;;;;4957829;28;20657;-61
2023/06/10 11:11:20;;;;;;;4.60;4.20;;;33.10;95.50;;;;;;4957047;28;20228;-61
2023/06/10 11:14:09;;;;;;;4.63;4.30;;;33.20;94.70;;;;;;4957273;28;20322;-61
2023/06/10 11:16:42;;;;;;;4.63;4.32;;;33.20;94.70;;;;;;4957777;28;22767;-60
2023/06/10 11:19:33;;;;;;;7.43;4.28;;;32.90;95.10;;;;;;4957534;28;20552;-61
2023/06/10 11:22:03;;;;;;;4.55;4.25;;;32.80;94.00;;;;;;4957426;28;20267;-61
2023/06/10 11:24:31;;;;;;;6.55;4.82;;;32.70;93.30;;;;;;4957595;28;20315;-60
2023/06/10 11:27:24;;;;;;;4.68;4.28;;;32.50;94.10;;;;;;4957530;28;20586;-61
2023/06/10 11:33:39;;;;;;;4.70;4.40;;;32.60;95.00;;;;;;4938330;28;20262;-61
2023/06/10 11:36:10;;;;;;;4.78;4.40;;;32.90;92.70;;;;;;4938002;28;20288;-60
2023/06/10 11:38:38;;;;;;;4.47;4.28;;;33.00;93.10;;;;;;4937838;28;20236;-61
2023/06/10 11:41:07;;;;;;;4.00;3.80;;;33.10;93.30;;;;;;4942462;28;20223;-60
2023/06/10 11:43:35;;;;;;;6.82;4.05;;;33.30;91.60;;;;;;4957469;28;20643;-60
2023/06/10 11:46:04;;;;;;;7.95;4.50;;;33.00;91.30;;;;;;4957578;28;20206;-61
2023/06/10 11:48:33;;;;;;;4.93;4.30;;;32.80;90.30;;;;;;4955727;29;20318;-61
2023/06/10 11:51:02;;;;;;;4.97;4.60;;;32.50;92.40;;;;;;4956570;28;20235;-61
2023/06/10 11:53:31;;;;;;;5.78;4.68;;;32.60;93.10;;;;;;4957038;28;20242;-60
2023/06/10 11:56:00;;;;;;;4.90;4.50;;;32.50;92.00;;;;;;4956726;28;20230;-61
2023/06/10 11:58:28;;;;;;;6.93;4.55;;;32.40;90.50;;;;;;4957064;28;20543;-60
2023/06/10 12:00:57;;;;;;;5.78;4.60;;;32.50;90.80;;;;;;4957259;28;20278;-62
2023/06/10 12:03:26;;;;;;;5.72;4.20;;;32.60;89.10;;;;;;4956670;28;20227;-61
2023/06/10 12:05:59;;;;;;;4.97;4.60;;;32.60;90.50;;;;;;4956852;28;20261;-61
2023/06/10 12:08:28;;;;;;;5.03;4.63;;;32.70;92.20;;;;;;4956356;28;20228;-60
2023/06/10 12:10:58;;;;;;;5.93;5.25;;;32.80;92.50;;;;;;4956923;28;20795;-61
2023/06/10 12:13:28;;;;;;;6.15;4.53;;;32.90;94.10;;;;;;4956863;28;20203;-61
2023/06/10 12:16:08;;;;;;;4.57;4.28;;;32.90;91.70;;;;;;4957312;28;20596;-61
2023/06/10 12:18:36;;;;;;;5.00;4.68;;;32.90;91.50;;;;;;4956446;28;20230;-61
2023/06/10 12:21:19;;;;;;;5.07;4.68;;;32.80;90.50;;;;;;4955894;28;20230;-60
2023/06/10 12:24:05;;;;;;;4.68;4.40;;;32.40;90.90;;;;;;4956124;28;20222;-61
2023/06/10 12:26:44;;;;;;;7.22;4.80;;;32.10;90.60;;;;;;4956497;28;20240;-61
2023/06/10 12:29:22;;;;;;;4.85;4.50;;;32.10;90.70;;;;;;4955788;28;20241;-61
2023/06/10 12:31:58;;;;;;;5.35;4.95;;;31.90;91.40;;;;;;4956171;28;20641;-60
2023/06/10 12:34:35;;;;;;;5.50;4.90;;;32.00;91.20;;;;;;4955741;28;20213;-61
2023/06/10 12:37:05;;;;;;;5.53;4.88;;;32.00;91.30;;;;;;4956787;29;20194;-61
2023/06/10 12:40:13;;;;;;;6.28;5.00;;;32.10;93.20;;;;;;4955551;28;20224;-61
2023/06/10 12:42:44;;;;;;;6.65;4.88;;;32.20;91.50;;;;;;4955595;28;20227;-62
2023/06/10 12:45:54;;;;;;;7.90;4.93;;;31.90;90.40;;;;;;4956049;28;20236;-61
2023/06/10 12:48:24;;;;;;;4.97;4.68;;;31.90;90.40;;;;;;4955478;28;20278;-60
2023/06/10 12:50:58;;;;;;;6.50;4.82;;;32.10;93.10;;;;;;4949359;28;20313;-59
2023/06/10 12:57:07;;;;;;;5.15;4.78;;;32.70;91.10;;;;;;4946931;28;20650;-59
2023/06/10 12:59:37;;;;;;;5.35;4.82;;;32.30;90.20;;;;;;4955712;28;20241;-59
2023/06/10 13:02:05;;;;;;;5.18;4.68;;;31.80;89.40;;;;;;4955597;28;20231;-59
2023/06/10 13:04:33;;;;;;;5.57;5.10;;;31.80;91.70;;;;;;4955875;28;20648;-60
2023/06/10 13:07:02;;;;;;;5.63;5.13;;;31.90;90.80;;;;;;4955749;28;20282;-61
2023/06/10 13:09:30;;;;;;;8.95;5.03;;;32.00;90.30;;;;;;4955520;28;20240;-60
2023/06/10 13:11:59;;;;;;;5.45;5.05;;;32.20;91.60;;;;;;4955278;28;20745;-61
2023/06/10 13:14:28;;;;;;;5.75;5.35;;;32.20;90.50;;;;;;4955189;28;20233;-59
2023/06/10 13:16:58;;;;;;;5.50;5.10;;;32.30;91.60;;;;;;4955532;28;20617;-59
2023/06/10 13:19:26;;;;;;;5.95;5.35;;;32.60;92.90;;;;;;4955341;28;20219;-59
2023/06/10 13:21:55;;;;;;;5.05;4.65;;;32.70;91.60;;;;;;4955992;28;20199;-60
2023/06/10 13:24:23;;;;;;;6.45;5.15;;;33.00;91.00;;;;;;4955194;28;20223;-60
2023/06/10 13:26:51;;;;;;;6.32;5.07;;;33.00;88.10;;;;;;4955315;28;20231;-59
2023/06/10 13:29:20;;;;;;;5.78;5.25;;;32.80;91.70;;;;;;4955636;28;20229;-60
2023/06/10 13:31:48;;;;;;;7.88;5.10;;;32.80;90.10;;;;;;4955635;28;20255;-59
2023/06/10 13:34:18;;;;;;;5.50;5.00;;;32.30;88.80;;;;;;4956149;28;20535;-59
2023/06/10 13:36:46;;;;;;;6.10;5.57;;;32.20;90.10;;;;;;4954754;28;20226;-59
2023/06/10 13:39:15;;;;;;;8.27;5.38;;;32.40;89.40;;;;;;4954905;28;20233;-59
2023/06/10 13:41:43;;;;;;;7.38;4.82;;;32.80;92.50;;;;;;4953558;28;20315;-59
2023/06/10 13:44:12;;;;;;;5.72;5.22;;;33.10;92.30;;;;;;4955458;28;20234;-59
2023/06/10 13:46:40;;;;;;;5.63;5.18;;;33.20;90.90;;;;;;4955394;28;20249;-59
2023/06/10 13:49:08;;;;;;;8.07;5.50;;;33.10;90.90;;;;;;4955274;29;20199;-60
2023/06/10 13:51:38;;;;;;;6.00;5.50;;;33.30;90.60;;;;;;4954899;28;20275;-60
2023/06/10 13:54:06;;;;;;;5.45;4.97;;;33.30;87.50;;;;;;4954799;28;20230;-60
2023/06/10 13:56:37;;;;;;;5.38;4.97;;;33.00;90.50;;;;;;4955055;28;20247;-59
2023/06/10 13:59:06;;;;;;;4.90;4.43;;;32.60;89.90;;;;;;4955278;28;20236;-59
2023/06/10 14:01:34;;;;;;;5.53;5.22;;;32.40;88.20;;;;;;4955258;28;20217;-59
2023/06/10 14:04:02;;;;;;;7.03;5.30;;;32.10;90.10;;;;;;4956007;28;20203;-59
2023/06/10 14:06:32;;;;;;;5.80;5.13;;;31.90;87.90;;;;;;4955094;28;20229;-59
2023/06/10 14:09:01;;;;;;;5.75;5.25;;;32.00;90.60;;;;;;4954773;28;20237;-59